Time;durP1;ratioP1;P1;durP2;ratioP2;P2;SDS_P1;SDS_P2;PMS_P1;PMS_P2;Temp;Humidity;BMP_temperature;BMP_pressure;BME280_temperature;BME280_humidity;BME280_pressure;Samples;Min_cycle;Max_cycle;Signal;HPM_P1;HPM_P2
2022/11/09 00:00:47;;;;;;;15.20;11.82;;;6.90;99.90;;;;;;5078568;28;20549;-75
2022/11/09 00:03:13;;;;;;;11.40;10.30;;;6.90;99.90;;;;;;5087300;28;20241;-75
2022/11/09 00:05:40;;;;;;;15.73;11.52;;;7.00;99.90;;;;;;5074322;28;20171;-75
2022/11/09 00:08:07;;;;;;;12.45;10.73;;;7.00;99.90;;;;;;5094113;28;20572;-75
2022/11/09 00:10:32;;;;;;;12.02;10.77;;;7.10;99.90;;;;;;5083043;28;20223;-74
2022/11/09 00:12:58;;;;;;;11.80;10.60;;;7.00;99.90;;;;;;5085659;28;20182;-73
2022/11/09 00:15:24;;;;;;;13.00;10.23;;;6.90;99.90;;;;;;5079890;28;20640;-75
2022/11/09 00:17:49;;;;;;;10.68;9.68;;;6.90;99.90;;;;;;5076429;28;20256;-75
2022/11/09 00:20:15;;;;;;;13.45;11.20;;;6.90;99.90;;;;;;5086408;28;20181;-74
2022/11/09 00:22:40;;;;;;;12.10;10.75;;;6.80;99.90;;;;;;5083069;28;20208;-74
2022/11/09 00:25:06;;;;;;;11.52;10.43;;;6.70;99.90;;;;;;5072361;28;20679;-73
2022/11/09 00:27:32;;;;;;;11.50;10.40;;;6.70;99.90;;;;;;5089986;28;20632;-75
2022/11/09 00:29:58;;;;;;;12.82;10.60;;;6.60;99.90;;;;;;5080904;28;20282;-75
2022/11/09 00:32:23;;;;;;;10.02;9.13;;;6.60;99.90;;;;;;5075872;28;20572;-74
2022/11/09 00:34:49;;;;;;;12.60;11.30;;;6.60;99.90;;;;;;5079755;28;20179;-75
2022/11/09 00:37:14;;;;;;;12.07;10.80;;;6.50;99.90;;;;;;5087082;28;20190;-75
2022/11/09 00:39:40;;;;;;;12.38;11.13;;;6.50;99.90;;;;;;5084950;28;20183;-74
2022/11/09 00:42:06;;;;;;;12.15;10.85;;;6.50;99.90;;;;;;5082666;28;20178;-75
2022/11/09 00:44:31;;;;;;;13.15;10.93;;;6.40;99.90;;;;;;5083253;28;20213;-75
2022/11/09 00:46:57;;;;;;;11.73;10.52;;;6.40;99.90;;;;;;5077896;28;20215;-74
2022/11/09 00:49:23;;;;;;;13.90;12.38;;;6.30;99.90;;;;;;5080840;28;20206;-74
2022/11/09 00:51:48;;;;;;;12.50;11.20;;;6.30;99.90;;;;;;5082212;28;20187;-74
2022/11/09 00:54:14;;;;;;;16.05;11.35;;;6.30;99.90;;;;;;5089459;28;20178;-74
2022/11/09 00:56:39;;;;;;;12.55;11.27;;;6.20;99.90;;;;;;5086523;28;20182;-74
2022/11/09 00:59:05;;;;;;;13.32;12.02;;;6.30;99.90;;;;;;5084230;28;20665;-74
2022/11/09 01:01:30;;;;;;;12.40;11.10;;;6.30;99.90;;;;;;5072916;28;20174;-74
2022/11/09 01:03:56;;;;;;;13.32;11.30;;;6.40;99.90;;;;;;5084168;28;20588;-74
2022/11/09 01:06:23;;;;;;;15.20;13.00;;;6.30;99.90;;;;;;5092286;28;20185;-73
2022/11/09 01:08:50;;;;;;;13.70;12.30;;;6.20;99.90;;;;;;5081074;28;20199;-74
2022/11/09 01:11:18;;;;;;;15.35;12.77;;;6.20;99.90;;;;;;5090107;28;20174;-74
2022/11/09 01:13:44;;;;;;;14.10;12.70;;;6.20;99.90;;;;;;5077461;28;20572;-74
2022/11/09 01:16:12;;;;;;;16.70;14.48;;;6.30;99.90;;;;;;5088477;28;20201;-74
2022/11/09 01:18:38;;;;;;;17.20;13.57;;;6.30;99.90;;;;;;5080148;28;20567;-73
2022/11/09 01:21:06;;;;;;;16.40;14.70;;;6.30;99.90;;;;;;5087869;28;20637;-74
2022/11/09 01:23:33;;;;;;;16.85;15.05;;;6.30;99.90;;;;;;5082067;28;20239;-74
2022/11/09 01:26:00;;;;;;;17.33;15.48;;;6.30;99.90;;;;;;5068492;28;20183;-73
2022/11/09 01:28:25;;;;;;;16.15;14.45;;;6.40;99.90;;;;;;5070356;28;20241;-74
2022/11/09 01:30:51;;;;;;;17.75;14.95;;;6.40;99.90;;;;;;5069847;28;20171;-74
2022/11/09 01:33:17;;;;;;;19.45;15.07;;;6.50;99.90;;;;;;5067271;28;20183;-74
2022/11/09 01:35:43;;;;;;;17.50;14.32;;;6.50;99.90;;;;;;5072817;28;20176;-75
2022/11/09 01:38:08;;;;;;;18.08;14.07;;;6.60;99.90;;;;;;5073097;28;20281;-74
2022/11/09 01:40:36;;;;;;;16.08;14.38;;;6.60;99.90;;;;;;5072599;28;20176;-74
2022/11/09 01:43:22;;;;;;;16.02;14.02;;;6.60;99.90;;;;;;5072142;28;20545;-73
2022/11/09 01:46:09;;;;;;;17.13;14.75;;;6.70;99.90;;;;;;5082078;28;20194;-74
2022/11/09 01:48:35;;;;;;;17.17;14.60;;;6.60;99.90;;;;;;5058058;28;20232;-74
2022/11/09 01:51:12;;;;;;;15.27;13.63;;;6.60;99.90;;;;;;5070305;28;20197;-73
2022/11/09 01:53:40;;;;;;;16.30;14.30;;;6.60;99.90;;;;;;5072766;28;20174;-73
2022/11/09 01:56:09;;;;;;;15.32;13.73;;;6.60;99.90;;;;;;5073314;28;20263;-74
2022/11/09 01:58:58;;;;;;;15.23;13.63;;;6.70;99.90;;;;;;5069416;28;20195;-73
2022/11/09 02:01:24;;;;;;;14.82;13.23;;;6.60;99.90;;;;;;5067715;28;20186;-73
2022/11/09 02:04:13;;;;;;;15.35;13.63;;;6.60;99.90;;;;;;5079487;28;20206;-73
2022/11/09 02:06:39;;;;;;;16.38;14.15;;;6.60;99.90;;;;;;5068836;28;20199;-73
2022/11/09 02:09:18;;;;;;;16.48;14.82;;;6.70;99.90;;;;;;5083689;28;20262;-74
2022/11/09 02:11:44;;;;;;;15.35;13.57;;;6.70;99.90;;;;;;5082814;28;20262;-74
2022/11/09 02:14:11;;;;;;;15.80;14.10;;;6.70;99.90;;;;;;5091745;28;20202;-75
2022/11/09 02:16:38;;;;;;;17.52;13.45;;;6.80;99.90;;;;;;5071064;28;20200;-74
2022/11/09 02:19:03;;;;;;;14.57;13.07;;;6.80;99.90;;;;;;5069258;28;20171;-74
2022/11/09 02:21:30;;;;;;;15.38;13.77;;;6.90;99.90;;;;;;5071318;28;20186;-74
2022/11/09 02:23:57;;;;;;;13.75;12.30;;;6.90;99.90;;;;;;5068996;28;20180;-74
2022/11/09 02:26:40;;;;;;;13.98;12.68;;;7.00;99.90;;;;;;5065345;28;20175;-74
2022/11/09 02:29:08;;;;;;;16.27;13.02;;;6.90;99.90;;;;;;5072639;28;20194;-74
2022/11/09 02:31:38;;;;;;;15.77;13.45;;;7.00;99.90;;;;;;5074686;28;20250;-72
2022/11/09 02:34:14;;;;;;;15.50;13.90;;;6.90;99.90;;;;;;5075762;28;20238;-72
2022/11/09 02:36:39;;;;;;;14.77;13.27;;;7.00;99.90;;;;;;5065129;28;20189;-74
2022/11/09 02:39:05;;;;;;;14.02;12.73;;;7.00;99.90;;;;;;5069959;28;20175;-74
2022/11/09 02:41:33;;;;;;;14.43;12.95;;;7.00;99.90;;;;;;5076551;28;20236;-74
2022/11/09 02:44:00;;;;;;;13.60;12.30;;;7.00;99.90;;;;;;5073122;28;20175;-74
2022/11/09 02:46:36;;;;;;;16.00;13.43;;;7.00;99.90;;;;;;5077568;28;20195;-74
2022/11/09 02:49:02;;;;;;;17.23;14.35;;;6.90;99.90;;;;;;5077366;28;20657;-75
2022/11/09 02:51:29;;;;;;;15.27;13.43;;;6.80;99.90;;;;;;5074151;28;20171;-75
2022/11/09 02:53:54;;;;;;;15.00;13.50;;;6.70;99.90;;;;;;5058396;28;20230;-74
2022/11/09 02:56:20;;;;;;;16.13;13.38;;;6.70;99.90;;;;;;5053753;28;20176;-74
2022/11/09 02:58:46;;;;;;;14.77;13.27;;;6.70;99.90;;;;;;5054847;28;20199;-75
2022/11/09 03:01:11;;;;;;;14.18;12.77;;;6.70;99.90;;;;;;5058497;28;20175;-75
2022/11/09 03:03:37;;;;;;;15.32;13.73;;;6.70;99.90;;;;;;5074925;28;20201;-75
2022/11/09 03:06:03;;;;;;;15.38;13.57;;;6.80;99.90;;;;;;5075170;28;20221;-75
2022/11/09 03:08:28;;;;;;;15.10;13.32;;;6.70;99.90;;;;;;5082155;28;20211;-75
2022/11/09 03:10:54;;;;;;;16.52;13.80;;;6.80;99.90;;;;;;5074146;28;20182;-74
2022/11/09 03:13:20;;;;;;;15.32;13.73;;;6.70;99.90;;;;;;5083006;28;20588;-75
2022/11/09 03:15:45;;;;;;;16.58;14.07;;;6.70;99.90;;;;;;5082810;28;20179;-74
2022/11/09 03:18:11;;;;;;;15.25;13.75;;;6.70;99.90;;;;;;5081674;28;20203;-77
2022/11/09 03:20:36;;;;;;;18.48;14.05;;;6.60;99.90;;;;;;5077157;28;20264;-75
2022/11/09 03:23:02;;;;;;;15.43;13.82;;;6.60;99.90;;;;;;5079491;28;20171;-75
2022/11/09 03:25:28;;;;;;;14.50;12.60;;;6.50;99.90;;;;;;5069764;28;20530;-73
2022/11/09 03:28:02;;;;;;;15.93;14.23;;;6.50;99.90;;;;;;5072853;28;20677;-74
2022/11/09 03:30:28;;;;;;;14.73;12.85;;;6.60;99.90;;;;;;5078666;28;20649;-74
2022/11/09 03:33:02;;;;;;;17.52;14.10;;;6.60;99.90;;;;;;5071129;28;20530;-73
2022/11/09 03:35:27;;;;;;;15.68;14.02;;;6.60;99.90;;;;;;5075378;28;20174;-75
2022/11/09 03:37:53;;;;;;;15.23;13.63;;;6.60;99.90;;;;;;5083751;28;20198;-74
2022/11/09 03:40:19;;;;;;;14.80;13.27;;;6.60;99.90;;;;;;5088073;28;20199;-74
2022/11/09 03:42:46;;;;;;;14.95;12.93;;;6.70;99.90;;;;;;5079668;28;20176;-74
2022/11/09 03:45:14;;;;;;;14.35;12.90;;;6.70;99.90;;;;;;5086964;28;20218;-75
2022/11/09 03:47:41;;;;;;;16.05;13.25;;;6.80;99.90;;;;;;5072138;28;20279;-75
2022/11/09 03:50:07;;;;;;;13.73;12.18;;;6.70;99.90;;;;;;5087856;28;20261;-74
2022/11/09 03:52:33;;;;;;;13.05;11.73;;;6.80;99.90;;;;;;5083524;28;20186;-74
2022/11/09 03:54:59;;;;;;;16.23;12.88;;;6.80;99.90;;;;;;5084613;28;20180;-74
2022/11/09 03:57:24;;;;;;;13.15;11.75;;;6.80;99.90;;;;;;5081444;28;20197;-73
2022/11/09 03:59:50;;;;;;;14.43;12.95;;;6.80;99.90;;;;;;5085926;28;20642;-75
2022/11/09 04:02:15;;;;;;;13.77;12.38;;;6.80;99.90;;;;;;5090019;28;20267;-75
2022/11/09 04:04:41;;;;;;;13.40;11.95;;;6.80;99.90;;;;;;5069047;28;20187;-75
2022/11/09 04:07:09;;;;;;;20.25;12.05;;;6.80;99.90;;;;;;5082423;28;20207;-75
2022/11/09 04:09:34;;;;;;;12.73;11.48;;;6.80;99.90;;;;;;5077493;28;20701;-75
2022/11/09 04:12:00;;;;;;;14.40;11.38;;;6.80;99.90;;;;;;5073268;28;20293;-75
2022/11/09 04:14:26;;;;;;;12.45;11.15;;;6.80;99.90;;;;;;5071691;28;20672;-75
2022/11/09 04:16:51;;;;;;;12.50;11.30;;;6.80;99.90;;;;;;5068495;28;20196;-75
2022/11/09 04:19:17;;;;;;;13.65;11.43;;;6.80;99.90;;;;;;5087861;28;20182;-75
2022/11/09 04:21:42;;;;;;;13.98;11.88;;;6.80;99.90;;;;;;5079286;28;20185;-75
2022/11/09 04:24:08;;;;;;;12.55;11.30;;;6.70;99.90;;;;;;5084389;28;20179;-75
2022/11/09 04:26:33;;;;;;;13.40;11.70;;;6.70;99.90;;;;;;5087409;28;20206;-74
2022/11/09 04:28:59;;;;;;;13.55;11.65;;;6.60;99.90;;;;;;5090191;28;20174;-75
2022/11/09 04:31:24;;;;;;;11.82;10.30;;;6.70;99.90;;;;;;5084919;28;20162;-74
2022/11/09 04:33:50;;;;;;;12.13;10.50;;;6.70;99.90;;;;;;5083041;28;20606;-74
2022/11/09 04:36:16;;;;;;;12.13;10.85;;;6.70;99.90;;;;;;5074546;28;20170;-73
2022/11/09 04:38:42;;;;;;;12.10;10.90;;;6.70;99.90;;;;;;5081908;28;20253;-73
2022/11/09 04:41:07;;;;;;;12.48;10.65;;;6.60;99.90;;;;;;5087381;28;20580;-74
2022/11/09 04:43:34;;;;;;;14.18;11.38;;;6.60;99.90;;;;;;5086354;28;20213;-74
2022/11/09 04:46:00;;;;;;;11.88;10.68;;;6.60;99.90;;;;;;5086747;28;20226;-74
2022/11/09 04:48:26;;;;;;;13.45;12.05;;;6.50;99.90;;;;;;5086245;28;20555;-73
2022/11/09 04:50:57;;;;;;;11.63;10.48;;;6.50;99.90;;;;;;5080229;28;20209;-73
2022/11/09 04:53:22;;;;;;;11.70;10.45;;;6.50;99.90;;;;;;5085173;28;20185;-74
2022/11/09 04:55:49;;;;;;;14.50;11.40;;;6.50;99.90;;;;;;5083200;28;20186;-74
2022/11/09 04:58:15;;;;;;;12.90;11.50;;;6.50;99.90;;;;;;5084644;28;20234;-74
2022/11/09 05:00:40;;;;;;;15.95;12.10;;;6.50;99.90;;;;;;5083124;28;20217;-74
2022/11/09 05:03:07;;;;;;;12.35;11.05;;;6.50;99.90;;;;;;5085573;28;20316;-74
2022/11/09 05:05:36;;;;;;;12.93;11.65;;;6.40;99.90;;;;;;5085018;28;20183;-74
2022/11/09 05:08:03;;;;;;;11.73;10.60;;;6.40;99.90;;;;;;5087701;28;20217;-74
2022/11/09 05:10:29;;;;;;;13.95;11.50;;;6.20;99.90;;;;;;5080077;28;20637;-74
2022/11/09 05:13:12;;;;;;;11.90;10.80;;;6.20;99.90;;;;;;5086570;28;20175;-74
2022/11/09 05:15:39;;;;;;;11.90;10.63;;;6.20;99.90;;;;;;5079063;28;20175;-74
2022/11/09 05:18:05;;;;;;;12.32;11.07;;;6.10;99.90;;;;;;5065428;28;20207;-75
2022/11/09 05:20:31;;;;;;;12.10;10.63;;;6.10;99.90;;;;;;5071495;28;20718;-74
2022/11/09 05:25:42;;;;;;;12.55;11.35;;;6.10;99.90;;;;;;5084496;28;20274;-74
2022/11/09 05:28:08;;;;;;;12.65;11.35;;;6.00;99.90;;;;;;5083242;28;20252;-74
2022/11/09 05:30:34;;;;;;;11.52;10.35;;;6.00;99.90;;;;;;5084391;28;20178;-74
2022/11/09 05:32:59;;;;;;;13.05;11.18;;;5.90;99.90;;;;;;5080422;28;20262;-73
2022/11/09 05:35:25;;;;;;;11.15;10.05;;;5.90;99.90;;;;;;5076987;28;20258;-74
2022/11/09 05:37:51;;;;;;;11.68;10.57;;;6.00;99.90;;;;;;5069245;28;20251;-75
2022/11/09 05:40:18;;;;;;;11.32;10.13;;;5.90;99.90;;;;;;5066988;28;20176;-74
2022/11/09 05:42:44;;;;;;;11.45;10.27;;;5.90;99.90;;;;;;5071608;28;20181;-72
2022/11/09 05:45:12;;;;;;;11.25;10.15;;;5.90;99.90;;;;;;5077326;28;20354;-74
2022/11/09 05:47:39;;;;;;;10.85;9.75;;;5.80;99.90;;;;;;5075444;28;20291;-72
2022/11/09 05:50:06;;;;;;;10.40;9.23;;;5.80;99.90;;;;;;5085972;28;20174;-73
2022/11/09 05:52:32;;;;;;;10.75;9.70;;;5.80;99.90;;;;;;5081375;28;20166;-74
2022/11/09 05:54:59;;;;;;;10.25;9.32;;;5.80;99.90;;;;;;5068367;28;20180;-73
2022/11/09 05:57:25;;;;;;;9.73;8.73;;;5.80;99.90;;;;;;5074174;28;20227;-75
2022/11/09 05:59:51;;;;;;;11.65;10.05;;;5.80;99.90;;;;;;5069779;28;20554;-76
2022/11/09 06:02:17;;;;;;;10.95;9.77;;;5.80;99.90;;;;;;5074027;28;20174;-76
2022/11/09 06:04:42;;;;;;;10.32;9.35;;;5.80;99.90;;;;;;5068865;28;20215;-76
2022/11/09 06:07:08;;;;;;;10.63;9.63;;;5.80;99.90;;;;;;5068234;28;20613;-75
2022/11/09 06:09:34;;;;;;;10.98;9.23;;;5.90;99.90;;;;;;5066881;28;20182;-76
2022/11/09 06:11:59;;;;;;;11.60;10.50;;;5.90;99.90;;;;;;5058823;28;20190;-76
2022/11/09 06:14:25;;;;;;;10.80;9.70;;;6.00;99.90;;;;;;5065853;28;20278;-76
2022/11/09 06:16:51;;;;;;;11.27;10.07;;;5.90;99.90;;;;;;5057577;28;20244;-74
2022/11/09 06:19:16;;;;;;;10.85;9.77;;;5.90;99.90;;;;;;5068130;28;20187;-75
2022/11/09 06:21:42;;;;;;;10.65;9.57;;;5.90;99.90;;;;;;5069268;28;20180;-75
2022/11/09 06:24:08;;;;;;;10.20;9.30;;;6.00;99.90;;;;;;5060048;28;20183;-74
2022/11/09 06:26:34;;;;;;;10.68;9.65;;;6.00;99.90;;;;;;5066915;28;20183;-75
2022/11/09 06:29:00;;;;;;;10.88;9.88;;;6.20;99.90;;;;;;5072269;28;20163;-75
2022/11/09 06:31:25;;;;;;;9.85;8.85;;;6.10;99.90;;;;;;5069271;28;20183;-74
2022/11/09 06:33:51;;;;;;;13.18;10.45;;;6.10;99.90;;;;;;5076659;28;20644;-75
2022/11/09 06:36:17;;;;;;;10.73;9.63;;;6.20;99.90;;;;;;5080268;28;20836;-74
2022/11/09 06:38:42;;;;;;;11.23;10.23;;;6.20;99.90;;;;;;5079263;28;20729;-75
2022/11/09 06:41:08;;;;;;;11.57;9.82;;;6.30;99.90;;;;;;5072341;28;20270;-74
2022/11/09 06:43:35;;;;;;;10.63;9.65;;;6.30;99.90;;;;;;5084649;28;20633;-76
2022/11/09 06:46:05;;;;;;;10.27;9.38;;;6.40;99.90;;;;;;5074588;28;20568;-76
2022/11/09 06:48:30;;;;;;;9.85;8.85;;;6.50;99.90;;;;;;5071531;28;20203;-74
2022/11/09 06:51:00;;;;;;;8.80;8.00;;;6.60;99.90;;;;;;5061233;28;20184;-76
2022/11/09 06:53:28;;;;;;;10.13;9.13;;;6.60;99.90;;;;;;5067291;28;20180;-74
2022/11/09 06:55:57;;;;;;;9.13;7.97;;;6.60;99.90;;;;;;5066511;28;20175;-73
2022/11/09 06:58:22;;;;;;;10.48;9.43;;;6.80;99.90;;;;;;5069539;28;20195;-74
2022/11/09 07:00:48;;;;;;;9.18;8.30;;;6.80;99.90;;;;;;5076877;28;20225;-74
2022/11/09 07:03:15;;;;;;;9.05;8.20;;;6.80;99.90;;;;;;5068689;28;20270;-74
2022/11/09 07:05:41;;;;;;;8.93;8.02;;;6.70;99.90;;;;;;5079525;28;20171;-81
2022/11/09 07:08:06;;;;;;;9.00;8.13;;;6.70;99.90;;;;;;5085302;28;20202;-81
2022/11/09 07:10:32;;;;;;;9.63;8.73;;;6.70;99.90;;;;;;5082708;28;20657;-79
2022/11/09 07:12:57;;;;;;;8.70;7.93;;;6.70;99.90;;;;;;5075497;28;20259;-72
2022/11/09 07:15:24;;;;;;;8.25;7.45;;;6.80;99.90;;;;;;5081607;28;20178;-73
2022/11/09 07:17:49;;;;;;;8.52;7.80;;;6.80;99.90;;;;;;5080306;28;20296;-73
2022/11/09 07:20:15;;;;;;;7.75;7.10;;;6.80;99.90;;;;;;5084687;28;20219;-72
2022/11/09 07:22:41;;;;;;;7.90;7.20;;;6.90;99.90;;;;;;5066532;28;20214;-72
2022/11/09 07:25:08;;;;;;;6.95;6.35;;;6.90;99.90;;;;;;5068229;28;20188;-73
2022/11/09 07:27:34;;;;;;;7.10;6.50;;;6.90;99.90;;;;;;5071107;28;20697;-73
2022/11/09 07:30:00;;;;;;;7.85;7.15;;;7.00;99.90;;;;;;5066266;28;20549;-72
2022/11/09 07:32:26;;;;;;;7.97;7.22;;;7.00;99.90;;;;;;5057694;28;20187;-73
2022/11/09 07:34:52;;;;;;;7.38;6.78;;;6.90;99.90;;;;;;5069512;28;20211;-73
2022/11/09 07:37:17;;;;;;;7.10;6.50;;;6.90;99.90;;;;;;5078928;28;20198;-72
2022/11/09 07:39:43;;;;;;;6.80;6.20;;;7.00;99.90;;;;;;5068887;28;20580;-73
2022/11/09 07:42:08;;;;;;;7.88;7.22;;;7.00;99.90;;;;;;5076193;28;20646;-72
2022/11/09 07:44:34;;;;;;;7.05;6.47;;;7.00;99.90;;;;;;5069267;28;20179;-73
2022/11/09 07:47:00;;;;;;;8.23;7.50;;;7.00;99.90;;;;;;5080769;28;20293;-72
2022/11/09 07:49:25;;;;;;;7.00;6.40;;;7.10;99.90;;;;;;5070472;28;20260;-72
2022/11/09 07:51:51;;;;;;;7.65;6.95;;;7.20;99.90;;;;;;5067558;28;20727;-72
2022/11/09 07:54:16;;;;;;;8.80;7.90;;;7.20;99.90;;;;;;5068049;28;20180;-72
2022/11/09 07:56:42;;;;;;;8.60;7.80;;;7.30;99.90;;;;;;5068448;28;20321;-73
2022/11/09 07:59:08;;;;;;;8.13;7.50;;;7.40;99.90;;;;;;5057240;28;20203;-73
2022/11/09 08:01:33;;;;;;;7.85;7.07;;;7.50;99.90;;;;;;5068093;28;20241;-70
2022/11/09 08:04:00;;;;;;;6.90;6.30;;;7.60;99.90;;;;;;5062792;28;20701;-72
2022/11/09 08:06:26;;;;;;;7.47;6.78;;;7.60;99.90;;;;;;5063859;28;20270;-73
2022/11/09 08:08:56;;;;;;;6.97;6.32;;;7.80;99.90;;;;;;5065563;28;20210;-73
2022/11/09 08:11:23;;;;;;;6.88;6.28;;;7.80;99.90;;;;;;5069713;28;20199;-72
2022/11/09 08:13:49;;;;;;;7.68;6.97;;;8.00;99.90;;;;;;5060808;28;20541;-72
2022/11/09 08:16:15;;;;;;;7.75;7.15;;;8.00;99.90;;;;;;5062521;28;20180;-72
2022/11/09 08:18:40;;;;;;;7.57;6.93;;;8.10;99.90;;;;;;5060253;28;20534;-72
2022/11/09 08:21:06;;;;;;;7.43;6.72;;;8.20;99.90;;;;;;5077470;28;20187;-72
2022/11/09 08:23:32;;;;;;;7.80;7.20;;;8.30;99.90;;;;;;5076986;28;20213;-78
2022/11/09 08:26:01;;;;;;;8.30;7.53;;;8.40;99.90;;;;;;5061551;28;20179;-71
2022/11/09 08:28:27;;;;;;;7.10;6.50;;;8.60;99.90;;;;;;5054081;28;20207;-74
2022/11/09 08:30:59;;;;;;;6.63;6.03;;;8.60;99.90;;;;;;5068155;28;20179;-73
2022/11/09 08:33:26;;;;;;;6.68;6.10;;;8.80;99.90;;;;;;5067865;28;20210;-77
2022/11/09 08:35:53;;;;;;;7.40;6.70;;;8.90;99.90;;;;;;5077512;28;20180;-74
2022/11/09 08:38:18;;;;;;;6.65;6.05;;;8.90;99.90;;;;;;5070552;28;20617;-73
2022/11/09 08:40:44;;;;;;;7.75;7.05;;;9.00;99.90;;;;;;5063714;28;20175;-74
2022/11/09 08:43:10;;;;;;;7.10;6.50;;;8.80;99.90;;;;;;5081981;28;20176;-73
2022/11/09 08:45:38;;;;;;;7.00;6.38;;;8.90;99.90;;;;;;5071997;28;20203;-73
2022/11/09 08:48:05;;;;;;;7.05;6.45;;;8.80;99.90;;;;;;5083856;28;20198;-76
2022/11/09 08:50:32;;;;;;;6.65;6.15;;;8.80;99.90;;;;;;5069559;28;20177;-79
2022/11/09 08:52:57;;;;;;;6.80;6.20;;;8.80;99.90;;;;;;5070117;28;20616;-75
2022/11/09 08:55:23;;;;;;;6.35;5.85;;;8.80;99.90;;;;;;5065405;28;20199;-73
2022/11/09 08:57:52;;;;;;;7.15;6.55;;;8.90;99.90;;;;;;5076676;28;20231;-76
2022/11/09 09:00:18;;;;;;;6.97;6.45;;;8.80;99.90;;;;;;5064623;28;20189;-74
2022/11/09 09:02:44;;;;;;;6.50;5.95;;;8.90;99.90;;;;;;5069957;28;20175;-76
2022/11/09 09:05:09;;;;;;;6.18;5.68;;;9.00;99.90;;;;;;5062588;28;20646;-76
2022/11/09 09:07:35;;;;;;;6.28;5.70;;;9.10;99.90;;;;;;5060972;28;20207;-75
2022/11/09 09:10:00;;;;;;;6.15;5.65;;;9.20;99.90;;;;;;5066243;28;20254;-74
2022/11/09 09:12:26;;;;;;;6.80;6.20;;;9.30;99.90;;;;;;5076268;28;20308;-74
2022/11/09 09:14:52;;;;;;;6.60;6.10;;;9.30;99.90;;;;;;5080093;28;20212;-74
2022/11/09 09:17:17;;;;;;;6.53;6.03;;;9.40;99.90;;;;;;5077234;28;20205;-75
2022/11/09 09:19:43;;;;;;;6.30;5.90;;;9.50;99.90;;;;;;5080988;28;20175;-74
2022/11/09 09:22:09;;;;;;;6.43;5.82;;;9.50;99.90;;;;;;5062803;28;20266;-73
2022/11/09 09:24:34;;;;;;;6.75;6.25;;;9.30;99.90;;;;;;5067267;28;20217;-74
2022/11/09 09:27:00;;;;;;;6.63;6.03;;;9.30;99.90;;;;;;5067712;28;20216;-75
2022/11/09 09:29:25;;;;;;;6.95;6.35;;;9.20;99.90;;;;;;5069989;28;20203;-74
2022/11/09 09:31:51;;;;;;;6.65;6.05;;;9.10;99.90;;;;;;5063974;28;20177;-76
2022/11/09 09:34:17;;;;;;;5.90;5.50;;;9.20;99.90;;;;;;5073716;28;20190;-76
2022/11/09 09:36:42;;;;;;;5.82;5.32;;;9.20;99.90;;;;;;5083606;28;20185;-76
2022/11/09 09:39:08;;;;;;;6.25;5.75;;;9.20;99.90;;;;;;5075926;28;20304;-77
2022/11/09 09:41:36;;;;;;;6.20;5.60;;;9.40;99.90;;;;;;5083838;28;20767;-75
2022/11/09 09:44:11;;;;;;;6.50;6.00;;;9.40;99.90;;;;;;5082135;28;20278;-77
2022/11/09 09:46:39;;;;;;;6.40;5.90;;;9.40;99.90;;;;;;5078108;28;20201;-77
2022/11/09 09:49:29;;;;;;;6.68;6.18;;;9.50;99.90;;;;;;5077485;28;20178;-77
2022/11/09 09:52:26;;;;;;;5.88;5.40;;;9.40;99.90;;;;;;5067361;28;20171;-76
2022/11/09 09:55:11;;;;;;;6.32;5.82;;;9.70;99.90;;;;;;5076155;28;20257;-75
2022/11/09 09:57:39;;;;;;;6.53;6.03;;;10.20;99.90;;;;;;5078592;28;20314;-76
2022/11/09 10:00:08;;;;;;;6.65;5.75;;;10.40;99.90;;;;;;5071603;28;20175;-76
2022/11/09 10:02:35;;;;;;;6.20;5.80;;;10.70;99.90;;;;;;5081021;28;20183;-75
2022/11/09 10:05:14;;;;;;;6.50;5.75;;;10.90;99.90;;;;;;5076581;28;20210;-77
2022/11/09 10:07:40;;;;;;;6.13;5.47;;;11.10;99.90;;;;;;5076624;28;20210;-77
2022/11/09 10:10:43;;;;;;;5.38;5.00;;;11.30;99.90;;;;;;5087786;28;20558;-76
2022/11/09 10:13:21;;;;;;;5.05;4.70;;;11.40;99.90;;;;;;5084236;28;20535;-79
2022/11/09 10:16:05;;;;;;;5.35;4.95;;;11.40;99.90;;;;;;5083167;28;20179;-79
2022/11/09 10:18:45;;;;;;;6.28;5.68;;;11.60;99.90;;;;;;5075692;28;20202;-79
2022/11/09 10:21:30;;;;;;;7.22;6.60;;;11.50;99.90;;;;;;5071787;28;20391;-79
2022/11/09 10:24:04;;;;;;;5.68;5.28;;;11.00;99.90;;;;;;5082040;28;20723;-79
2022/11/09 10:26:44;;;;;;;5.88;5.47;;;11.10;99.90;;;;;;5072431;28;20185;-79
2022/11/09 10:29:23;;;;;;;6.68;6.07;;;11.20;99.90;;;;;;5082282;28;20185;-79
2022/11/09 10:31:52;;;;;;;6.32;5.70;;;11.40;99.90;;;;;;5080720;28;20261;-79
2022/11/09 10:34:24;;;;;;;5.53;5.13;;;11.30;99.90;;;;;;5081051;28;20206;-79
2022/11/09 10:37:13;;;;;;;5.63;5.13;;;11.20;99.90;;;;;;5085849;28;20185;-79
2022/11/09 10:39:50;;;;;;;6.22;5.72;;;11.10;99.90;;;;;;5076855;28;20172;-78
2022/11/09 10:42:15;;;;;;;6.35;5.85;;;11.20;99.90;;;;;;5079224;28;20555;-78
2022/11/09 10:44:41;;;;;;;6.40;5.88;;;11.10;99.90;;;;;;5076333;28;20212;-79
2022/11/09 10:47:11;;;;;;;6.30;5.80;;;11.20;99.90;;;;;;5085113;28;20202;-79
2022/11/09 10:49:39;;;;;;;6.35;5.85;;;11.50;99.90;;;;;;5084290;28;20179;-80
2022/11/09 10:52:25;;;;;;;9.38;8.48;;;11.70;99.90;;;;;;5077550;28;20195;-79
2022/11/09 10:54:51;;;;;;;5.85;5.40;;;11.90;99.90;;;;;;5075062;28;20187;-77
2022/11/09 10:57:17;;;;;;;6.03;5.53;;;12.30;99.90;;;;;;5081480;28;20190;-77
2022/11/09 10:59:47;;;;;;;6.43;5.93;;;12.50;99.90;;;;;;5069785;28;20183;-78
2022/11/09 11:02:25;;;;;;;6.00;5.50;;;12.90;99.90;;;;;;5068139;28;20191;-77
2022/11/09 11:04:51;;;;;;;5.88;5.47;;;13.10;99.90;;;;;;5076158;28;20515;-78
2022/11/09 11:07:21;;;;;;;5.75;5.35;;;13.00;99.90;;;;;;5062701;28;20214;-79
2022/11/09 11:09:47;;;;;;;5.60;5.10;;;13.20;99.90;;;;;;5077156;28;20175;-78
2022/11/09 11:12:20;;;;;;;5.53;5.13;;;13.30;99.90;;;;;;5065595;28;20177;-77
2022/11/09 11:14:46;;;;;;;6.00;5.60;;;12.90;99.90;;;;;;5083263;28;20269;-80
2022/11/09 11:17:34;;;;;;;6.25;5.65;;;12.50;99.90;;;;;;5093170;28;20692;-80
2022/11/09 11:20:34;;;;;;;6.30;5.80;;;12.40;99.90;;;;;;5071129;28;20650;-81
2022/11/09 11:23:08;;;;;;;5.80;5.40;;;12.30;99.90;;;;;;5089769;28;20171;-81
2022/11/09 11:25:57;;;;;;;5.93;5.43;;;12.60;99.90;;;;;;5077008;28;20275;-80
2022/11/09 11:28:37;;;;;;;6.22;5.60;;;13.00;99.90;;;;;;5067761;28;20199;-83
2022/11/09 11:31:03;;;;;;;6.05;5.55;;;13.30;99.90;;;;;;5089144;28;20572;-81
2022/11/09 11:33:32;;;;;;;6.18;5.72;;;13.30;99.90;;;;;;5088590;28;20188;-81
2022/11/09 11:36:22;;;;;;;6.45;5.95;;;13.30;99.90;;;;;;5087926;28;20537;-81
2022/11/09 11:38:59;;;;;;;6.15;5.65;;;13.00;99.90;;;;;;5076973;28;20200;-81
2022/11/09 11:41:33;;;;;;;5.88;5.47;;;12.60;99.90;;;;;;5080820;28;20265;-81
2022/11/09 11:44:11;;;;;;;6.22;5.68;;;12.70;99.90;;;;;;5090771;28;20178;-81
2022/11/09 11:47:00;;;;;;;6.63;6.10;;;12.90;99.90;;;;;;5085439;28;20250;-81
2022/11/09 11:49:34;;;;;;;6.43;5.82;;;12.90;99.90;;;;;;5073733;28;20184;-78
2022/11/09 11:52:22;;;;;;;6.45;5.95;;;12.90;99.90;;;;;;5077689;28;20166;-77
2022/11/09 11:54:59;;;;;;;7.13;6.53;;;12.90;99.90;;;;;;5071510;28;20555;-77
2022/11/09 11:57:45;;;;;;;6.75;6.15;;;12.90;99.90;;;;;;5073443;28;20194;-80
2022/11/09 12:00:13;;;;;;;5.50;5.10;;;12.80;99.90;;;;;;5073718;28;20195;-77
2022/11/09 12:02:48;;;;;;;6.68;5.85;;;12.70;99.90;;;;;;5078747;28;20175;-77
2022/11/09 12:05:19;;;;;;;6.47;5.97;;;12.50;99.90;;;;;;5091780;28;20261;-80
2022/11/09 12:07:50;;;;;;;7.28;6.55;;;12.30;99.90;;;;;;5073060;28;20207;-80
2022/11/09 12:10:33;;;;;;;6.57;6.03;;;12.30;99.90;;;;;;5090201;28;20183;-80
2022/11/09 12:13:22;;;;;;;7.13;6.43;;;12.10;99.90;;;;;;5085668;28;20168;-79
2022/11/09 12:16:14;;;;;;;7.43;6.65;;;12.00;99.90;;;;;;5089498;28;20538;-80
2022/11/09 12:18:57;;;;;;;7.63;6.93;;;12.00;99.90;;;;;;5071728;28;20588;-77
2022/11/09 12:21:30;;;;;;;7.00;6.50;;;12.00;99.90;;;;;;5058200;28;20178;-76
2022/11/09 12:24:03;;;;;;;14.07;6.65;;;12.20;99.90;;;;;;5074324;28;20273;-77
2022/11/09 12:26:47;;;;;;;6.90;6.40;;;12.30;99.90;;;;;;5072121;28;20182;-77
2022/11/09 12:29:26;;;;;;;7.55;6.95;;;12.60;99.90;;;;;;5066618;28;20694;-78
2022/11/09 12:31:55;;;;;;;6.95;6.35;;;12.60;99.90;;;;;;5061308;28;20697;-78
2022/11/09 12:34:27;;;;;;;6.05;5.65;;;12.70;99.90;;;;;;5063143;28;20189;-77
2022/11/09 12:37:03;;;;;;;7.03;6.43;;;12.80;99.90;;;;;;5068426;28;20210;-78
2022/11/09 12:39:45;;;;;;;6.22;5.72;;;12.90;99.90;;;;;;5064616;28;20582;-78
2022/11/09 12:42:26;;;;;;;6.63;6.13;;;13.20;99.90;;;;;;5058677;28;20248;-78
2022/11/09 12:45:03;;;;;;;7.22;6.53;;;13.70;99.90;;;;;;5062233;28;20313;-77
2022/11/09 12:47:39;;;;;;;6.78;6.28;;;13.60;99.90;;;;;;5072460;28;20574;-78
2022/11/09 12:50:10;;;;;;;7.28;6.68;;;13.70;99.90;;;;;;5076626;28;20638;-78
2022/11/09 12:52:36;;;;;;;6.15;5.68;;;13.80;99.90;;;;;;5064795;28;20172;-77
2022/11/09 12:55:04;;;;;;;6.80;6.25;;;14.00;99.90;;;;;;5066861;28;20550;-78
2022/11/09 12:57:32;;;;;;;7.50;6.80;;;14.40;99.90;;;;;;5062875;28;20249;-78